Date,TemperatureHighF,TemperatureAvgF,TemperatureLowF,DewpointHighF,DewpointAvgF,DewpointLowF,HumidityHigh,HumidityAvg,HumidityLow,PressureMaxIn,PressureMinIn,WindSpeedMaxMPH,WindSpeedAvgMPH,GustSpeedMaxMPH,PrecipitationSumIn
2013-2-1,22,14,7,12,6,0,83,69,57,30.44,30.10,14,4,20,0.00
2013-2-2,34,28,18,28,22,11,90,81,61,30.30,29.98,9,3,11,0.05
2013-2-3,31,26,18,26,22,16,91,82,68,30.11,29.93,10,4,15,0.00
2013-2-4,25,20,18,21,18,16,93,90,83,30.09,29.97,4,1,5,0.00
2013-2-6,37,35,32,30,30,29,88,82,76,30.16,30.12,4,1,7,0.00
2013-2-7,66,48,35,45,36,30,85,65,41,30.12,29.75,6,2,8,0.00
2013-2-8,54,38,29,48,34,26,94,84,71,30.28,29.76,13,6,19,0.12
2013-2-9,46,35,24,28,26,22,93,71,46,30.34,30.11,7,2,10,0.00
2013-2-10,56,45,37,51,38,24,92,75,51,30.11,29.73,9,3,16,0.23
2013-2-11,55,48,40,52,36,28,92,64,46,30.03,29.73,14,7,18,0.00
2013-2-12,50,38,27,32,28,25,91,69,42,30.10,29.84,6,1,8,0.00
2013-2-13,43,36,31,34,31,28,94,81,66,29.87,29.71,7,2,10,0.04
2013-2-14,55,43,34,39,35,32,92,76,47,29.95,29.80,10,4,15,0.00
2013-2-15,42,36,25,34,28,20,88,74,48,30.12,29.94,11,4,20,0.00
2013-2-16,32,26,20,21,16,10,90,68,40,30.11,30.03,14,5,19,0.00
2013-2-17,40,27,16,20,16,13,89,65,36,30.21,30.09,7,2,10,0.00
2013-2-18,61,44,28,43,30,17,88,58,36,30.13,29.68,7,4,17,0.28
2013-2-19,46,34,24,43,26,16,92,73,53,30.13,29.64,16,10,23,0.11
2013-2-20,31,25,19,18,15,12,80,65,52,30.28,30.13,10,4,13,0.00
2013-2-21,36,28,19,30,21,15,91,76,54,30.28,29.93,11,5,17,0.01
2013-2-22,46,38,32,39,35,30,97,89,75,29.95,29.79,8,2,15,0.36
2013-2-23,45,36,28,33,26,22,91,69,42,29.97,29.85,7,3,15,0.00
2013-2-24,48,33,22,30,25,20,91,72,43,30.09,29.92,4,1,7,0.00
2013-2-25,49,39,29,28,25,24,88,60,38,30.06,29.72,11,6,18,0.00
2013-2-26,48,43,39,47,38,25,96,84,51,29.72,29.29,11,5,16,0.79
2013-2-27,39,37,33,37,33,30,93,88,73,29.73,29.50,9,5,15,0.02
2013-2-28,36,34,32,34,32,29,93,90,87,29.94,29.71,10,7,18,0.01